createdAt,value
2018-12-08T00:00:32.307Z,19.67
2018-12-08T00:01:32.388Z,19.65
2018-12-08T00:02:31.916Z,19.67
2018-12-08T00:03:31.966Z,19.67
2018-12-08T00:04:32.769Z,19.65
2018-12-08T00:05:32.831Z,19.65
2018-12-08T00:06:32.211Z,19.65
2018-12-08T00:07:32.404Z,19.65
2018-12-08T00:08:32.157Z,19.64
2018-12-08T00:09:32.152Z,19.63
2018-12-08T00:10:32.154Z,19.63
2018-12-08T00:11:32.042Z,19.63
2018-12-08T00:12:31.895Z,19.62
2018-12-08T00:13:32.275Z,19.62
2018-12-08T00:14:32.794Z,19.62
2018-12-08T00:15:32.360Z,19.62
2018-12-08T00:16:32.016Z,19.62
2018-12-08T00:17:32.221Z,19.61
2018-12-08T00:18:32.008Z,19.6
2018-12-08T00:19:32.112Z,19.59
2018-12-08T00:20:32.056Z,19.59
2018-12-08T00:21:31.902Z,19.59
2018-12-08T00:22:32.143Z,19.59
2018-12-08T00:23:31.971Z,19.59
2018-12-08T00:24:32.194Z,19.58
2018-12-08T00:25:32.338Z,19.58
2018-12-08T00:26:32.069Z,19.58
2018-12-08T00:27:31.958Z,19.58
2018-12-08T00:28:32.099Z,19.57
2018-12-08T00:29:32.042Z,19.56
2018-12-08T00:30:31.913Z,19.56
2018-12-08T00:31:32.204Z,19.56
2018-12-08T00:32:32.094Z,19.56
2018-12-08T00:33:32.051Z,19.56
2018-12-08T00:34:32.208Z,19.55
2018-12-08T00:35:32.112Z,19.55
2018-12-08T00:36:31.980Z,19.54
2018-12-08T00:37:32.175Z,19.55
2018-12-08T00:38:32.141Z,19.54
2018-12-08T00:39:32.434Z,19.54
2018-12-08T00:40:32.222Z,19.52
2018-12-08T00:41:32.314Z,19.52
2018-12-08T00:42:32.160Z,19.52
2018-12-08T00:43:31.942Z,19.52
2018-12-08T00:44:32.163Z,19.51
2018-12-08T00:45:32.161Z,19.51
2018-12-08T00:46:32.047Z,19.5
2018-12-08T00:47:32.466Z,19.51
2018-12-08T00:48:31.889Z,19.51
2018-12-08T00:49:32.161Z,19.5
2018-12-08T00:50:32.071Z,19.51
2018-12-08T00:51:32.429Z,19.5
2018-12-08T00:52:32.481Z,19.5
2018-12-08T00:53:32.355Z,19.49
2018-12-08T00:54:32.388Z,19.48
2018-12-08T00:55:32.370Z,19.48
2018-12-08T00:56:32.086Z,19.48
2018-12-08T00:57:31.898Z,19.47
2018-12-08T00:58:32.312Z,19.47
2018-12-08T00:59:32.304Z,19.48
2018-12-08T01:00:32.003Z,19.46
2018-12-08T01:01:32.326Z,19.47
2018-12-08T01:02:31.948Z,19.46
2018-12-08T01:03:32.127Z,19.47
2018-12-08T01:04:31.871Z,19.47
2018-12-08T01:05:32.258Z,19.46
2018-12-08T01:06:32.037Z,19.46
2018-12-08T01:07:32.053Z,19.46
2018-12-08T01:08:32.941Z,19.45
2018-12-08T01:09:32.694Z,19.44
2018-12-08T01:10:32.491Z,19.43
2018-12-08T01:11:32.328Z,19.44
2018-12-08T01:12:32.370Z,19.43
2018-12-08T01:13:32.344Z,19.42
2018-12-08T01:14:32.089Z,19.43
2018-12-08T01:15:32.107Z,19.42
2018-12-08T01:16:32.340Z,19.42
2018-12-08T01:17:32.367Z,19.41
2018-12-08T01:18:32.282Z,19.41
2018-12-08T01:19:32.203Z,19.41
2018-12-08T01:20:32.384Z,19.41
2018-12-08T01:21:32.141Z,19.42
2018-12-08T01:22:32.140Z,19.4
2018-12-08T01:23:32.146Z,19.39
2018-12-08T01:24:32.809Z,19.39
2018-12-08T01:25:32.605Z,19.4
2018-12-08T01:26:32.014Z,19.4
2018-12-08T01:27:31.896Z,19.39
2018-12-08T01:28:32.425Z,19.39
2018-12-08T01:29:32.730Z,19.39
2018-12-08T01:30:31.993Z,19.39
2018-12-08T01:31:32.092Z,19.38
2018-12-08T01:32:32.246Z,19.39
2018-12-08T01:33:31.870Z,19.37
2018-12-08T01:34:32.184Z,19.37
2018-12-08T01:35:32.280Z,19.37
2018-12-08T01:36:32.386Z,19.37
2018-12-08T01:37:32.143Z,19.37
2018-12-08T01:38:32.210Z,19.36
2018-12-08T01:39:32.156Z,19.36
2018-12-08T01:40:32.388Z,19.36
2018-12-08T01:41:31.894Z,19.35
2018-12-08T01:42:32.027Z,19.35
2018-12-08T01:43:32.267Z,19.34
2018-12-08T01:44:32.087Z,19.34
2018-12-08T01:45:32.187Z,19.34
2018-12-08T01:46:32.031Z,19.32
2018-12-08T01:47:32.040Z,19.32
2018-12-08T01:48:31.907Z,19.33
2018-12-08T01:49:32.367Z,19.32
2018-12-08T01:50:32.135Z,19.32
2018-12-08T01:51:32.449Z,19.32
2018-12-08T01:52:32.129Z,19.31
2018-12-08T01:53:31.892Z,19.32
2018-12-08T01:54:32.304Z,19.32
2018-12-08T01:55:32.272Z,19.31
2018-12-08T01:56:32.051Z,19.3
2018-12-08T01:57:32.214Z,19.3
2018-12-08T01:58:32.295Z,19.3
2018-12-08T01:59:32.168Z,19.3
2018-12-08T02:00:31.937Z,19.3
2018-12-08T02:01:32.005Z,19.29
2018-12-08T02:02:31.867Z,19.3
2018-12-08T02:03:31.998Z,19.29
2018-12-08T02:04:32.216Z,19.29
2018-12-08T02:05:31.933Z,19.29
2018-12-08T02:06:32.141Z,19.28
2018-12-08T02:07:31.971Z,19.28
2018-12-08T02:08:32.030Z,19.28
2018-12-08T02:09:31.885Z,19.28
2018-12-08T02:10:32.214Z,19.28
2018-12-08T02:11:32.105Z,19.27
2018-12-08T02:12:32.302Z,19.27
2018-12-08T02:13:32.124Z,19.25
2018-12-08T02:14:32.076Z,19.25
2018-12-08T02:15:32.109Z,19.25
2018-12-08T02:16:31.935Z,19.25
2018-12-08T02:17:32.599Z,19.26
2018-12-08T02:18:31.875Z,19.25
2018-12-08T02:19:32.466Z,19.24
2018-12-08T02:20:32.142Z,19.24
2018-12-08T02:21:32.160Z,19.24
2018-12-08T02:22:32.386Z,19.24
2018-12-08T02:23:31.900Z,19.23
2018-12-08T02:24:32.364Z,19.24
2018-12-08T02:25:32.190Z,19.23
2018-12-08T02:26:31.926Z,19.23
2018-12-08T02:27:32.100Z,19.22
2018-12-08T02:28:32.089Z,19.23
2018-12-08T02:29:32.589Z,19.23
2018-12-08T02:30:32.585Z,19.22
2018-12-08T02:31:32.046Z,19.21
2018-12-08T02:32:32.479Z,19.21
2018-12-08T02:33:31.932Z,19.21
2018-12-08T02:34:32.100Z,19.21
2018-12-08T02:35:31.970Z,19.2
2018-12-08T02:36:32.795Z,19.2
2018-12-08T02:37:31.897Z,19.21
2018-12-08T02:38:32.014Z,19.2
2018-12-08T02:39:32.291Z,19.2
2018-12-08T02:40:32.411Z,19.2
2018-12-08T02:41:32.201Z,19.19
2018-12-08T02:42:32.395Z,19.2
2018-12-08T02:43:32.066Z,19.2
2018-12-08T02:44:31.962Z,19.19
2018-12-08T02:45:31.883Z,19.19
2018-12-08T02:46:33.043Z,19.19
2018-12-08T02:47:32.371Z,19.19
2018-12-08T02:48:32.383Z,19.18
2018-12-08T02:49:32.171Z,19.18
2018-12-08T02:50:32.058Z,19.18
2018-12-08T02:51:31.911Z,19.18
2018-12-08T02:52:32.207Z,19.18
2018-12-08T02:53:32.722Z,19.17
2018-12-08T02:54:31.971Z,19.17
2018-12-08T02:55:32.295Z,19.18
2018-12-08T02:56:32.144Z,19.17
2018-12-08T02:57:32.342Z,19.17
2018-12-08T02:58:32.014Z,19.17
2018-12-08T02:59:32.084Z,19.16
2018-12-08T03:00:32.332Z,19.16
2018-12-08T03:01:32.086Z,19.16
2018-12-08T03:02:32.118Z,19.16
2018-12-08T03:03:31.875Z,19.16
2018-12-08T03:04:32.381Z,19.16
2018-12-08T03:05:32.731Z,19.16
2018-12-08T03:06:32.143Z,19.15
2018-12-08T03:07:32.186Z,19.14
2018-12-08T03:08:32.041Z,19.15
2018-12-08T03:09:31.950Z,19.15
2018-12-08T03:10:31.917Z,19.13
2018-12-08T03:11:32.039Z,19.14
2018-12-08T03:12:32.023Z,19.14
2018-12-08T03:13:32.287Z,19.13
2018-12-08T03:14:31.968Z,19.14
2018-12-08T03:15:31.993Z,19.12
2018-12-08T03:16:31.900Z,19.13
2018-12-08T03:17:32.438Z,19.13
2018-12-08T03:18:32.042Z,19.12
2018-12-08T03:19:32.209Z,19.13
2018-12-08T03:20:32.762Z,19.11
2018-12-08T03:21:32.285Z,19.11
2018-12-08T03:22:31.974Z,19.12
2018-12-08T03:23:31.950Z,19.12
2018-12-08T03:24:32.115Z,19.12
2018-12-08T03:25:31.869Z,19.1
2018-12-08T03:26:32.115Z,19.1
2018-12-08T03:27:32.316Z,19.11
2018-12-08T03:28:31.936Z,19.09
2018-12-08T03:29:32.017Z,19.1
2018-12-08T03:30:31.972Z,19.1
2018-12-08T03:31:32.618Z,19.08
2018-12-08T03:32:32.068Z,19.07
2018-12-08T03:33:31.913Z,19.07
2018-12-08T03:34:32.398Z,19.07
2018-12-08T03:35:32.025Z,19.09
2018-12-08T03:36:32.119Z,19.08
2018-12-08T03:37:31.893Z,19.08
2018-12-08T03:38:32.093Z,19.08
2018-12-08T03:39:31.879Z,19.07
2018-12-08T03:40:32.063Z,19.07
2018-12-08T03:41:32.166Z,19.07
2018-12-08T03:42:32.059Z,19.07
2018-12-08T03:43:32.055Z,19.07
2018-12-08T03:44:31.891Z,19.06
2018-12-08T03:45:32.027Z,19.06
2018-12-08T03:46:31.843Z,19.06
2018-12-08T03:47:32.089Z,19.06
2018-12-08T03:48:31.849Z,19.05
2018-12-08T03:49:32.041Z,19.04
2018-12-08T03:50:32.302Z,19.05
2018-12-08T03:51:31.894Z,19.04
2018-12-08T03:52:32.224Z,19.04
2018-12-08T03:53:31.982Z,19.04
2018-12-08T03:54:32.020Z,19.04
2018-12-08T03:55:32.045Z,19.03
2018-12-08T03:56:32.068Z,19.04
2018-12-08T03:57:31.817Z,19.03
2018-12-08T03:58:31.986Z,19.03
2018-12-08T03:59:32.282Z,19.03
2018-12-08T04:00:32.142Z,19.03
2018-12-08T04:01:32.312Z,19.02
2018-12-08T04:02:32.196Z,19.02
2018-12-08T04:03:31.970Z,19.03
2018-12-08T04:04:32.135Z,19.02
2018-12-08T04:05:31.862Z,19.01
2018-12-08T04:06:32.130Z,19.02
2018-12-08T04:07:31.959Z,19.01
2018-12-08T04:08:31.913Z,19.02
2018-12-08T04:09:32.305Z,19.02
2018-12-08T04:10:32.224Z,19.02
2018-12-08T04:11:32.061Z,19.01
2018-12-08T04:12:31.841Z,19.01
2018-12-08T04:13:32.109Z,19.01
2018-12-08T04:14:32.243Z,19
2018-12-08T04:15:32.004Z,19.01
2018-12-08T04:16:32.719Z,19
2018-12-08T04:17:31.985Z,19
2018-12-08T04:18:32.168Z,18.99
2018-12-08T04:19:31.786Z,19
2018-12-08T04:20:32.008Z,19
2018-12-08T04:21:31.855Z,18.99
2018-12-08T04:22:32.044Z,18.99
2018-12-08T04:23:32.102Z,18.99
2018-12-08T04:24:32.593Z,18.98
2018-12-08T04:25:32.208Z,18.99
2018-12-08T04:26:31.884Z,18.98
2018-12-08T04:27:32.290Z,18.99
2018-12-08T04:28:32.291Z,18.99
2018-12-08T04:29:32.027Z,18.98
2018-12-08T04:30:32.460Z,18.98
2018-12-08T04:31:31.975Z,18.97
2018-12-08T04:32:32.128Z,18.97
2018-12-08T04:33:31.820Z,18.97
2018-12-08T04:34:32.839Z,18.98
2018-12-08T04:35:32.159Z,18.97
2018-12-08T04:36:31.968Z,18.98
2018-12-08T04:37:31.808Z,18.98
2018-12-08T04:38:32.019Z,18.98
2018-12-08T04:39:32.213Z,18.98
2018-12-08T04:40:31.994Z,18.98
2018-12-08T04:41:32.076Z,18.98
2018-12-08T04:42:32.700Z,18.99
2018-12-08T04:43:32.126Z,18.98
2018-12-08T04:44:32.280Z,18.99
2018-12-08T04:45:32.073Z,18.99
2018-12-08T04:46:31.905Z,19
2018-12-08T04:47:31.992Z,19
2018-12-08T04:48:32.092Z,19
2018-12-08T04:49:31.928Z,19.01
2018-12-08T04:50:32.091Z,19.01
2018-12-08T04:51:31.807Z,19.01
2018-12-08T04:52:32.197Z,19.02
2018-12-08T04:53:32.043Z,19.03
2018-12-08T04:54:31.917Z,19.05
2018-12-08T04:55:32.091Z,19.04
2018-12-08T04:56:31.919Z,19.05
2018-12-08T04:57:32.633Z,19.06
2018-12-08T04:58:31.951Z,19.07
2018-12-08T04:59:32.073Z,19.08
2018-12-08T05:00:31.794Z,19.09
2018-12-08T05:01:32.476Z,19.1
2018-12-08T05:02:32.182Z,19.11
2018-12-08T05:03:32.181Z,19.12
2018-12-08T05:04:31.977Z,19.13
2018-12-08T05:05:32.315Z,19.15
2018-12-08T05:06:32.199Z,19.17
2018-12-08T05:07:31.931Z,19.18
2018-12-08T05:08:32.071Z,19.19
2018-12-08T05:09:32.225Z,19.21
2018-12-08T05:10:31.947Z,19.23
2018-12-08T05:11:32.199Z,19.24
2018-12-08T05:12:32.269Z,19.26
2018-12-08T05:13:32.057Z,19.26
2018-12-08T05:14:31.954Z,19.28
2018-12-08T05:15:32.338Z,19.3
2018-12-08T05:16:32.193Z,19.31
2018-12-08T05:17:31.925Z,19.33
2018-12-08T05:18:32.687Z,19.33
2018-12-08T05:19:32.000Z,19.35
2018-12-08T05:20:32.335Z,19.38
2018-12-08T05:21:31.891Z,19.38
2018-12-08T05:22:32.132Z,19.4
2018-12-08T05:23:31.835Z,19.41
2018-12-08T05:24:32.063Z,19.42
2018-12-08T05:25:31.915Z,19.43
2018-12-08T05:26:31.920Z,19.44
2018-12-08T05:27:31.868Z,19.46
2018-12-08T05:28:31.955Z,19.47
2018-12-08T05:29:32.129Z,19.48
2018-12-08T05:30:31.929Z,19.49
2018-12-08T05:31:32.055Z,19.5
2018-12-08T05:32:31.918Z,19.51
2018-12-08T05:33:31.886Z,19.53
2018-12-08T05:34:32.077Z,19.53
2018-12-08T05:35:31.976Z,19.55
2018-12-08T05:36:31.786Z,19.56
2018-12-08T05:37:32.243Z,19.56
2018-12-08T05:38:32.459Z,19.57
2018-12-08T05:39:32.066Z,19.59
2018-12-08T05:40:31.819Z,19.6
2018-12-08T05:41:32.123Z,19.6
2018-12-08T05:42:32.080Z,19.62
2018-12-08T05:43:32.053Z,19.62
2018-12-08T05:44:31.925Z,19.64
2018-12-08T05:45:32.054Z,19.64
2018-12-08T05:46:32.006Z,19.66
2018-12-08T05:47:32.226Z,19.67
2018-12-08T05:48:32.066Z,19.67
2018-12-08T05:49:32.433Z,19.69
2018-12-08T05:50:32.329Z,19.69
2018-12-08T05:51:31.951Z,19.7
2018-12-08T05:52:31.997Z,19.71
2018-12-08T05:53:31.864Z,19.72
2018-12-08T05:54:32.231Z,19.73
2018-12-08T05:55:31.691Z,19.75
2018-12-08T05:56:31.924Z,19.75
2018-12-08T05:57:32.024Z,19.76
2018-12-08T05:58:31.875Z,19.76
2018-12-08T05:59:32.068Z,19.77
2018-12-08T06:00:31.975Z,19.8
2018-12-08T06:01:32.162Z,19.79
2018-12-08T06:02:32.126Z,19.81
2018-12-08T06:03:32.002Z,19.82
2018-12-08T06:04:32.137Z,19.82
2018-12-08T06:05:31.845Z,19.83
2018-12-08T06:06:31.953Z,19.84
2018-12-08T06:07:31.817Z,19.85
2018-12-08T06:08:31.916Z,19.86
2018-12-08T06:09:32.134Z,19.87
2018-12-08T06:10:31.922Z,19.87
2018-12-08T06:11:32.133Z,19.87
2018-12-08T06:12:32.150Z,19.88
2018-12-08T06:13:32.005Z,19.89
2018-12-08T06:14:32.192Z,19.9
2018-12-08T06:15:31.931Z,19.9
2018-12-08T06:16:31.784Z,19.91
2018-12-08T06:17:31.922Z,19.93
2018-12-08T06:18:32.425Z,19.93
2018-12-08T06:19:32.144Z,19.95
2018-12-08T06:20:32.410Z,19.95
2018-12-08T06:21:31.906Z,19.95
2018-12-08T06:22:32.196Z,19.97
2018-12-08T06:23:32.059Z,19.97
2018-12-08T06:24:32.640Z,19.98
2018-12-08T06:25:32.000Z,19.99
2018-12-08T06:26:31.859Z,19.99
2018-12-08T06:27:32.002Z,20
2018-12-08T06:28:32.262Z,20.01
2018-12-08T06:29:31.918Z,20.02
2018-12-08T06:30:32.092Z,20.02
2018-12-08T06:31:31.960Z,20.02
2018-12-08T06:32:32.198Z,20.03
2018-12-08T06:33:31.849Z,20.04
2018-12-08T06:34:32.413Z,20.05
2018-12-08T06:35:31.991Z,20.05
2018-12-08T06:36:31.942Z,20.07
2018-12-08T06:37:32.076Z,20.08
2018-12-08T06:38:32.191Z,20.08
2018-12-08T06:39:32.660Z,20.09
2018-12-08T06:40:32.312Z,20.09
2018-12-08T06:41:32.197Z,20.1
2018-12-08T06:42:31.992Z,20.11
2018-12-08T06:43:32.013Z,20.12
2018-12-08T06:44:32.004Z,20.12
2018-12-08T06:45:32.024Z,20.13
2018-12-08T06:46:32.247Z,20.13
2018-12-08T06:47:32.801Z,20.15
2018-12-08T06:48:32.011Z,20.15
2018-12-08T06:49:32.180Z,20.16
2018-12-08T06:50:31.887Z,20.16
2018-12-08T06:51:31.915Z,20.17
2018-12-08T06:52:32.019Z,20.17
2018-12-08T06:53:31.955Z,20.18
2018-12-08T06:54:31.923Z,20.19
2018-12-08T06:55:31.917Z,20.19
2018-12-08T06:56:32.432Z,20.2
2018-12-08T06:57:31.778Z,20.2
2018-12-08T06:58:31.934Z,20.2
2018-12-08T06:59:31.742Z,20.21
2018-12-08T07:00:31.877Z,20.21
2018-12-08T07:01:32.069Z,20.23
2018-12-08T07:02:31.782Z,20.22
2018-12-08T07:03:31.993Z,20.23
2018-12-08T07:04:31.818Z,20.23
2018-12-08T07:05:31.912Z,20.24
2018-12-08T07:06:33.334Z,20.25
2018-12-08T07:07:31.977Z,20.24
2018-12-08T07:08:31.950Z,20.26
2018-12-08T07:09:31.782Z,20.26
2018-12-08T07:10:32.039Z,20.26
2018-12-08T07:11:31.912Z,20.27
2018-12-08T07:12:31.891Z,20.27
2018-12-08T07:13:32.067Z,20.27
2018-12-08T07:14:31.913Z,20.27
2018-12-08T07:15:31.848Z,20.28
2018-12-08T07:16:31.858Z,20.29
2018-12-08T07:17:32.258Z,20.3
2018-12-08T07:18:31.853Z,20.29
2018-12-08T07:19:31.923Z,20.3
2018-12-08T07:20:32.124Z,20.3
2018-12-08T07:21:32.007Z,20.3
2018-12-08T07:22:31.751Z,20.31
2018-12-08T07:23:32.315Z,20.31
2018-12-08T07:24:31.811Z,20.32
2018-12-08T07:25:31.919Z,20.32
2018-12-08T07:26:32.134Z,20.32
2018-12-08T07:27:31.726Z,20.33
2018-12-08T07:28:32.137Z,20.33
2018-12-08T07:29:31.955Z,20.32
2018-12-08T07:30:31.817Z,20.33
2018-12-08T07:31:32.899Z,20.32
2018-12-08T07:32:38.637Z,20.32
2018-12-08T07:33:31.781Z,20.32
2018-12-08T07:34:32.212Z,20.33
2018-12-08T07:35:32.090Z,20.33
2018-12-08T07:36:32.085Z,20.33
2018-12-08T07:37:32.075Z,20.33
2018-12-08T07:38:31.894Z,20.33
2018-12-08T07:39:32.112Z,20.33
2018-12-08T07:40:31.948Z,20.33
2018-12-08T07:41:32.022Z,20.33
2018-12-08T07:42:32.341Z,20.33
2018-12-08T07:43:31.856Z,20.34
2018-12-08T07:44:32.200Z,20.34
2018-12-08T07:45:32.334Z,20.34
2018-12-08T07:46:32.175Z,20.34
2018-12-08T07:47:31.859Z,20.34
2018-12-08T07:48:31.986Z,20.35
2018-12-08T07:49:31.839Z,20.35
2018-12-08T07:50:31.883Z,20.35
2018-12-08T07:51:31.725Z,20.34
2018-12-08T07:52:32.000Z,20.36
2018-12-08T07:53:32.002Z,20.36
2018-12-08T07:54:32.181Z,20.37
2018-12-08T07:55:32.326Z,20.37
2018-12-08T07:56:32.103Z,20.36
2018-12-08T07:57:31.864Z,20.37
2018-12-08T07:58:31.750Z,20.37
2018-12-08T07:59:31.927Z,20.38
2018-12-08T08:00:33.127Z,20.39
2018-12-08T08:01:32.147Z,20.38
2018-12-08T08:02:32.517Z,20.38
2018-12-08T08:03:32.093Z,20.39
2018-12-08T08:04:31.923Z,20.4
2018-12-08T08:05:32.198Z,20.4
2018-12-08T08:06:32.003Z,20.4
2018-12-08T08:07:31.921Z,20.4
2018-12-08T08:08:32.120Z,20.41
2018-12-08T08:09:32.012Z,20.41
2018-12-08T08:10:31.956Z,20.41
2018-12-08T08:11:31.937Z,20.42
2018-12-08T08:12:31.833Z,20.43
2018-12-08T08:13:31.912Z,20.43
2018-12-08T08:14:31.887Z,20.43
2018-12-08T08:15:32.166Z,20.44
2018-12-08T08:16:32.091Z,20.44
2018-12-08T08:17:31.916Z,20.44
2018-12-08T08:18:31.979Z,20.45
2018-12-08T08:19:32.112Z,20.46
2018-12-08T08:20:32.097Z,20.46
2018-12-08T08:21:31.799Z,20.46
2018-12-08T08:22:31.962Z,20.47
2018-12-08T08:23:31.839Z,20.47
2018-12-08T08:24:32.191Z,20.47
2018-12-08T08:25:33.099Z,20.48
2018-12-08T08:26:32.339Z,20.49
2018-12-08T08:27:32.120Z,20.49
2018-12-08T08:28:31.931Z,20.48
2018-12-08T08:29:32.050Z,20.49
2018-12-08T08:30:31.758Z,20.5
2018-12-08T08:31:32.851Z,20.49
2018-12-08T08:32:31.811Z,20.5
2018-12-08T08:33:31.810Z,20.51
2018-12-08T08:34:31.903Z,20.51
2018-12-08T08:35:32.159Z,20.51
2018-12-08T08:36:32.216Z,20.51
2018-12-08T08:37:31.838Z,20.51
2018-12-08T08:38:31.923Z,20.51
2018-12-08T08:39:31.833Z,20.51
2018-12-08T08:40:31.986Z,20.51
2018-12-08T08:41:31.779Z,20.51
2018-12-08T08:42:31.928Z,20.51
2018-12-08T08:43:31.793Z,20.51
2018-12-08T08:44:31.803Z,20.51
2018-12-08T08:45:31.936Z,20.52
2018-12-08T08:46:31.938Z,20.51
2018-12-08T08:47:32.392Z,20.51
2018-12-08T08:48:31.751Z,20.51
2018-12-08T08:49:31.891Z,20.51
2018-12-08T08:50:31.850Z,20.51
2018-12-08T08:51:31.883Z,20.5
2018-12-08T08:52:31.860Z,20.51
2018-12-08T08:53:31.849Z,20.51
2018-12-08T08:54:32.009Z,20.51
2018-12-08T08:55:32.089Z,20.52
2018-12-08T08:56:31.950Z,20.52
2018-12-08T08:57:31.763Z,20.52
2018-12-08T08:58:32.268Z,20.51
2018-12-08T08:59:32.373Z,20.52
2018-12-08T09:00:32.120Z,20.53
2018-12-08T09:01:31.791Z,20.52
2018-12-08T09:02:32.084Z,20.52
2018-12-08T09:03:32.106Z,20.53
2018-12-08T09:04:31.780Z,20.53
2018-12-08T09:05:32.165Z,20.52
2018-12-08T09:06:32.109Z,20.53
2018-12-08T09:07:31.980Z,20.53
2018-12-08T09:08:31.922Z,20.53
2018-12-08T09:09:31.751Z,20.53
2018-12-08T09:10:31.978Z,20.54
2018-12-08T09:11:31.713Z,20.54
2018-12-08T09:12:32.163Z,20.55
2018-12-08T09:13:31.836Z,20.54
2018-12-08T09:14:31.896Z,20.54
2018-12-08T09:15:31.906Z,20.55
2018-12-08T09:16:32.250Z,20.55
2018-12-08T09:17:32.204Z,20.55
2018-12-08T09:18:31.856Z,20.55
2018-12-08T09:19:31.709Z,20.55
2018-12-08T09:20:31.766Z,20.55
2018-12-08T09:21:31.912Z,20.55
2018-12-08T09:22:31.922Z,20.56
2018-12-08T09:23:31.968Z,20.56
2018-12-08T09:24:32.158Z,20.56
2018-12-08T09:25:31.865Z,20.56
2018-12-08T09:26:31.868Z,20.56
2018-12-08T09:27:31.739Z,20.57
2018-12-08T09:28:32.083Z,20.58
2018-12-08T09:29:32.500Z,20.58
2018-12-08T09:30:32.088Z,20.58
2018-12-08T09:31:31.982Z,20.58
2018-12-08T09:32:31.932Z,20.59
2018-12-08T09:33:32.108Z,20.58
2018-12-08T09:34:32.097Z,20.59
2018-12-08T09:35:31.847Z,20.59
2018-12-08T09:36:32.120Z,20.62
2018-12-08T09:37:31.773Z,20.6
2018-12-08T09:38:32.263Z,20.59
2018-12-08T09:39:32.302Z,20.59
2018-12-08T09:40:31.873Z,20.59
2018-12-08T09:41:31.910Z,20.59
2018-12-08T09:42:31.975Z,20.6
2018-12-08T09:43:31.806Z,20.6
2018-12-08T09:44:31.782Z,20.61
2018-12-08T09:45:32.107Z,20.6
2018-12-08T09:46:31.858Z,20.6
2018-12-08T09:47:32.131Z,20.6
2018-12-08T09:48:32.133Z,20.6
2018-12-08T09:49:31.917Z,20.6
2018-12-08T09:50:32.103Z,20.61
2018-12-08T09:51:32.117Z,20.61
2018-12-08T09:52:32.055Z,20.62
2018-12-08T09:53:32.907Z,20.62
2018-12-08T09:54:31.851Z,20.62
2018-12-08T09:55:31.804Z,20.62
2018-12-08T09:56:31.837Z,20.63
2018-12-08T09:57:32.255Z,20.63
2018-12-08T09:58:31.988Z,20.63
2018-12-08T09:59:32.276Z,20.63
2018-12-08T10:00:31.989Z,20.63
2018-12-08T10:01:32.111Z,20.63
2018-12-08T10:02:31.780Z,20.65
2018-12-08T10:03:31.922Z,20.64
2018-12-08T10:04:31.578Z,20.65
2018-12-08T10:05:31.715Z,20.66
2018-12-08T10:06:32.059Z,20.65
2018-12-08T10:07:32.786Z,20.66
2018-12-08T10:08:31.927Z,20.67
2018-12-08T10:09:32.067Z,20.67
2018-12-08T10:10:31.864Z,20.67
2018-12-08T10:11:31.995Z,20.67
2018-12-08T10:12:32.042Z,20.68
2018-12-08T10:13:32.287Z,20.68
2018-12-08T10:14:31.848Z,20.67
2018-12-08T10:15:31.695Z,20.68
2018-12-08T10:16:31.932Z,20.67
2018-12-08T10:17:31.872Z,20.68
2018-12-08T10:18:31.735Z,20.67
2018-12-08T10:19:31.975Z,20.67
2018-12-08T10:20:31.744Z,20.68
2018-12-08T10:21:31.893Z,20.67
2018-12-08T10:22:31.663Z,20.67
2018-12-08T10:23:31.877Z,20.67
2018-12-08T10:24:31.942Z,20.66
2018-12-08T10:25:31.972Z,20.66
2018-12-08T10:26:32.052Z,20.66
2018-12-08T10:27:31.740Z,20.67
2018-12-08T10:28:31.833Z,20.66
2018-12-08T10:29:31.965Z,20.66
2018-12-08T10:30:31.799Z,20.65
2018-12-08T10:31:31.673Z,20.65
2018-12-08T10:32:31.687Z,20.66
2018-12-08T10:33:31.797Z,20.65
2018-12-08T10:34:31.760Z,20.66
2018-12-08T10:35:32.197Z,20.65
2018-12-08T10:36:32.091Z,20.65
2018-12-08T10:37:31.779Z,20.64
2018-12-08T10:38:31.836Z,20.64
2018-12-08T10:39:31.911Z,20.63
2018-12-08T10:40:31.659Z,20.64
2018-12-08T10:41:31.915Z,20.63
2018-12-08T10:42:31.756Z,20.62
2018-12-08T10:43:31.986Z,20.63
2018-12-08T10:44:31.888Z,20.63
2018-12-08T10:45:32.273Z,20.63
2018-12-08T10:46:31.721Z,20.64
2018-12-08T10:47:32.237Z,20.63
2018-12-08T10:48:31.691Z,20.63
2018-12-08T10:49:31.908Z,20.63
2018-12-08T10:50:32.154Z,20.63
2018-12-08T10:51:32.172Z,20.63
2018-12-08T10:52:31.983Z,20.65
2018-12-08T10:53:31.794Z,20.63
2018-12-08T10:54:31.945Z,20.62
2018-12-08T10:55:31.959Z,20.59
2018-12-08T10:56:32.052Z,20.57
2018-12-08T10:57:32.045Z,20.57
2018-12-08T10:58:32.564Z,20.56
2018-12-08T10:59:31.771Z,20.55
2018-12-08T11:00:32.093Z,20.56
2018-12-08T11:01:32.294Z,20.55
2018-12-08T11:02:31.884Z,20.55
2018-12-08T11:03:31.697Z,20.55
2018-12-08T11:04:32.150Z,20.54
2018-12-08T11:05:31.751Z,20.54
2018-12-08T11:06:32.221Z,20.55
2018-12-08T11:07:32.174Z,20.55
2018-12-08T11:08:31.956Z,20.56
2018-12-08T11:09:32.077Z,20.56
2018-12-08T11:10:31.999Z,20.56
2018-12-08T11:11:32.121Z,20.56
2018-12-08T11:12:31.762Z,20.56
2018-12-08T11:13:32.135Z,20.56
2018-12-08T11:14:31.918Z,20.57
2018-12-08T11:15:31.953Z,20.57
2018-12-08T11:16:31.696Z,20.57
2018-12-08T11:17:31.783Z,20.57
2018-12-08T11:18:31.881Z,20.57
2018-12-08T11:19:32.104Z,20.58
2018-12-08T11:20:31.792Z,20.56
2018-12-08T11:21:32.166Z,20.58
2018-12-08T11:22:31.820Z,20.58
2018-12-08T11:23:31.985Z,20.57
2018-12-08T11:24:32.743Z,20.59
2018-12-08T11:25:32.567Z,20.62
2018-12-08T11:26:32.306Z,20.63
2018-12-08T11:27:31.713Z,20.63
2018-12-08T11:28:31.885Z,20.65
2018-12-08T11:29:31.707Z,20.66
2018-12-08T11:30:31.909Z,20.67
2018-12-08T11:31:31.702Z,20.71
2018-12-08T11:32:32.051Z,20.74
2018-12-08T11:33:31.849Z,20.73
2018-12-08T11:34:31.809Z,20.73
2018-12-08T11:35:32.112Z,20.75
2018-12-08T11:36:31.951Z,20.76
2018-12-08T11:37:32.241Z,20.77
2018-12-08T11:38:31.798Z,20.78
2018-12-08T11:39:31.910Z,20.78
2018-12-08T11:40:31.943Z,20.81
2018-12-08T11:41:31.799Z,20.81
2018-12-08T11:42:32.088Z,20.81
2018-12-08T11:43:31.721Z,20.83
2018-12-08T11:44:31.835Z,20.84
2018-12-08T11:45:32.319Z,20.83
2018-12-08T11:46:32.261Z,20.85
2018-12-08T11:47:32.158Z,20.85
2018-12-08T11:48:32.024Z,20.86
2018-12-08T11:49:31.916Z,20.86
2018-12-08T11:50:32.083Z,20.88
2018-12-08T11:51:31.977Z,20.9
2018-12-08T11:52:31.880Z,20.89
2018-12-08T11:53:31.885Z,20.9
2018-12-08T11:54:31.731Z,20.9
2018-12-08T11:55:31.650Z,20.9
2018-12-08T11:56:31.783Z,20.9
2018-12-08T11:57:32.399Z,20.91
2018-12-08T11:58:31.682Z,20.91
2018-12-08T11:59:31.928Z,20.91
2018-12-08T12:00:31.678Z,20.91
2018-12-08T12:01:31.645Z,20.92
2018-12-08T12:02:32.007Z,20.92
2018-12-08T12:03:31.769Z,20.93
2018-12-08T12:04:31.819Z,20.93
2018-12-08T12:05:31.691Z,20.93
2018-12-08T12:06:31.860Z,20.94
2018-12-08T12:07:31.718Z,20.94
2018-12-08T12:08:31.745Z,20.93
2018-12-08T12:09:31.625Z,20.94
2018-12-08T12:10:31.662Z,20.94
2018-12-08T12:11:31.958Z,20.94
2018-12-08T12:12:31.666Z,20.95
2018-12-08T12:13:31.871Z,20.95
2018-12-08T12:14:31.959Z,20.95
2018-12-08T12:15:31.775Z,20.96
2018-12-08T12:16:31.898Z,20.96
2018-12-08T12:17:31.750Z,20.97
2018-12-08T12:18:31.957Z,20.97
2018-12-08T12:19:31.942Z,20.97
2018-12-08T12:20:31.807Z,20.97
2018-12-08T12:21:31.816Z,20.97
2018-12-08T12:22:31.739Z,20.97
2018-12-08T12:23:31.893Z,20.98
2018-12-08T12:24:31.983Z,20.97
2018-12-08T12:25:31.897Z,20.96
2018-12-08T12:26:31.999Z,20.95
2018-12-08T12:27:31.788Z,20.94
2018-12-08T12:28:31.542Z,20.94
2018-12-08T12:29:32.032Z,20.94
2018-12-08T12:30:32.136Z,20.93
2018-12-08T12:31:32.169Z,20.93
2018-12-08T12:32:31.962Z,20.92
2018-12-08T12:33:32.192Z,20.92
2018-12-08T12:34:32.699Z,20.92
2018-12-08T12:35:31.832Z,20.92
2018-12-08T12:36:31.967Z,20.92
2018-12-08T12:37:31.826Z,20.91
2018-12-08T12:38:31.689Z,20.91
2018-12-08T12:39:31.846Z,20.91
2018-12-08T12:40:32.074Z,20.9
2018-12-08T12:41:31.975Z,20.9
2018-12-08T12:42:32.224Z,20.9
2018-12-08T12:43:31.883Z,20.9
2018-12-08T12:44:32.110Z,20.9
2018-12-08T12:45:31.931Z,20.9
2018-12-08T12:46:32.065Z,20.9
2018-12-08T12:47:31.745Z,20.9
2018-12-08T12:48:32.153Z,20.89
2018-12-08T12:49:31.787Z,20.89
2018-12-08T12:50:31.715Z,20.89
2018-12-08T12:51:31.948Z,20.89
2018-12-08T12:52:32.116Z,20.88
2018-12-08T12:53:31.758Z,20.88
2018-12-08T12:54:31.945Z,20.88
2018-12-08T12:55:32.558Z,20.88